Aérodrome :
LOGIN :

S'inscrire | Disclaimer

   EN    FR    IT 

 










Légende :    VFR   VFR Marginal   IFR   IFR Intensif   IFR Très Intensif
Visi : 
Plafond : 
>= 8 km
>= 3000ft
5 à 8 km
1000 à 3000 ft
1500m à 5 km
500 à 1000 ft
800 à 1500m
200 à 500 ft
< 800m
< 200 ft
Symboles :   Orages  Brouillard  Fortes neiges  Fortes précipitations  Vent > 20 kt
SIGMETs :   Divers  Orages  Givrage  Turbulence  Onde Orograph.  Cendres Volcan.






- Altitude de l'aérodrome : 2555 ft
- Code IATA : ADJ


OJAM - Marka Int.

DERNIER METAR :
  • 221600Z 30007KT 4000 HZ FEW025 SCT030 06/04 Q1020 NOSIG

METARs EXPIRÉS :
  • 221500Z 27009KT 4000 HZ FEW025TCU SCT030 07/03 Q1020 NOSIG
  • 221400Z 27009KT 4000 -RA FEW025TCU SCT035 SCT070 07/04 Q1020 NOSIG

TAF TAF OJAM
Valide du 22 à 12h jusqu'au 23 à 18h UTC


221049Z 2212/2318 28010KT 5000 BR FEW020 SCT025
PROB30 2300/2307 VRB02KT 1500 SCT020
PROB40 2315/2318 26016KT 3000 RA FEW020 BKN025



MET'MAP, la Météo Aéronautique d'un coup d'oeil ! - Copyright ORBIFLY Décembre 2007 - Disclaimer

ORBIFLY MET'MAP TEAM :

Programmation & Développement : Alexandra Zaïnal
Sur une idée originale de : Baudouin d'Aumeries
Assistance à la programmation : Marc-Olivier Méhu
Soutien technique & logistique : Manuel Goepfert

Contact : metmap@orbifly.com




SOURCES & CREDITS :

   NOAA